Airfield :
LOGIN :

Register | Disclaimer

   EN    FR    IT 

 










Legend :    VFR   Marginal VFR   IFR   Intensive IFR   Very Intensive IFR
Visi :
Ceiling :
>= 8 km
>= 3000ft
5 to 8 km
1000 to 3000 ft
1500m to 5 km
500 to 1000 ft
800 to 1500m
200 to 500 ft
< 800m
< 200 ft
Symbols :   Thunderstorms  Fog  Heavy snow  Heavy precipitations  Wind > 20 kt
SIGMETs :     Misc.  Thunderstorms  Icing  Turbulence  Mountain Waves  Volcanic Ashes







- Airport Elevation : -15 ft
- IATA code : RTM


EHRD - Rotterdam Zestienhoven

CURRENT METAR :
  • 200125Z AUTO 04003KT 5000 BR NCD 00/M00 Q1018 TEMPO 4000

EXPIRED METARs :
  • 200055Z AUTO 08003KT 6000 FEW047 M00/M01 Q1018 TEMPO 4000 BR
  • 200025Z AUTO 09003KT 7000 BKN044 01/M00 Q1017 NOSIG
  • 192355Z AUTO 09004KT 8000 OVC028 03/01 Q1018 NOSIG
  • 192325Z AUTO 10004KT 7000 OVC029 03/01 Q1017 NOSIG
  • 192255Z AUTO 09004KT 6000 OVC019 03/01 Q1017 NOSIG
  • 192225Z AUTO 10004KT 080V140 6000 -DZ SCT020 OVC025 03/02 Q1017 NOSIG

TAF TAF EHRD
Valid from the 20 at 00:00 until the 21 at 06:00 UTC


192315Z 2000/2106 07006KT 6000 SCT020
PROB40 2001/2009 3500 MIFG BR
BECMG 2008/2010 9999
PROB30
TEMPO 2100/2106 3500 MIFG BR
No reported NOTAMs for that airfield.



MET'MAP, your aeronautical weather chart ! - Copyright ORBIFLY December 2007 - Disclaimer

ORBIFLY MET'MAP TEAM :

Programming & Development : Alexandra Zaïnal
Concept & Development : Baudouin d'Aumeries
Co-Development & Prog : Marc-Olivier Méhu
Technical & hardware support : Manuel Goepfert

Contact : metmap@orbifly.com




SOURCES & CREDITS :

   NOAA